Island Lookout — WDF6311 — position and weather

sailwx.info

Track history (hours):
 
Tides and Currents Weather Stations Pressure Air Temp Water Temp Dewpoint Dewpoint Depression Visibility Wind Speed Wind Dir Waves Ship Positions

Island Lookout

Owner: Stevens Towing Company Inc., Yonges Island, SC. More information available from US FCC via Universal Licensing System and Coast Guard Vessel Documentation Center.

Last reported at 2018-Jun-18 01:49 UTC. Time now 2018-Jun-19 08:09 UTC.
Position N 36°43' W 076°14'.

Length 22 m; draft 2.9 m.

Type: Towing. MMSI: 367472930.

Date/timePositionNaut miles runAvg speedWind from/ knotsBaromVisibWave heightAir tempDewpointWater temp
2018-Jun-18 01:49N 36°43' W 076°14'1 2.0
2018-Jun-18 01:30N 36°43' W 076°15'3 5.3
2018-Jun-18 01:00N 36°44' W 076°18'0 0.7
2018-Jun-18 00:30N 36°45' W 076°18'1 2.6
2018-Jun-18 00:00N 36°46' W 076°18'1 1.3
2018-Jun-17 23:30N 36°47' W 076°18'2 4.3
2018-Jun-17 23:00N 36°45' W 076°18'3 3.3
2018-Jun-17 22:10N 36°43' W 076°15'1 0.8
2018-Jun-17 21:18N 36°43' W 076°14'0 0.0
2018-Jun-16 02:42N 36°43' W 076°14'1 1.8
2018-Jun-16 02:23N 36°43' W 076°15'0 1.0
2018-Jun-16 01:58N 36°44' W 076°15'2 4.4
2018-Jun-16 01:30N 36°44' W 076°18'2 4.8
2018-Jun-16 01:00N 36°47' W 076°18'1 1.1
2018-Jun-16 00:30N 36°47' W 076°18'3 5.7
2018-Jun-16 00:00N 36°50' W 076°18'3 5.6
2018-Jun-15 23:27N 36°52' W 076°20'116 5.8
2018-Jun-15 03:22N 38°48' W 076°27'3 6.8
2018-Jun-15 03:00N 38°50' W 076°26'3 6.7
2018-Jun-15 02:30N 38°53' W 076°25'3 6.9
2018-Jun-15 02:00N 38°57' W 076°24'3 6.5
2018-Jun-15 01:30N 38°60' W 076°23'3 6.2
2018-Jun-15 00:59N 39°03' W 076°23'3 6.0
2018-Jun-15 00:25N 39°06' W 076°24'2 5.7
2018-Jun-15 00:00N 39°09' W 076°25'3 5.8
2018-Jun-14 23:30N 39°11' W 076°27'3 6.1
2018-Jun-14 23:00N 39°12' W 076°30'3 6.4
2018-Jun-14 22:30N 39°14' W 076°33'2 4.6
2018-Jun-14 22:00N 39°16' W 076°35'0 0.0
2018-Jun-14 21:30N 39°16' W 076°35'0 0.1
2018-Jun-14 21:00N 39°16' W 076°35'0 0.0
2018-Jun-14 20:30N 39°16' W 076°35'0 0.0
2018-Jun-14 20:00N 39°16' W 076°35'0 0.0
2018-Jun-14 19:30N 39°16' W 076°35'0 0.0
2018-Jun-14 19:00N 39°16' W 076°35'0 0.0
2018-Jun-14 18:30N 39°16' W 076°35'0 0.0
2018-Jun-14 18:00N 39°16' W 076°35'0 0.0
2018-Jun-14 17:30N 39°16' W 076°35'0 0.0
2018-Jun-14 17:00N 39°16' W 076°35'0 0.0
2018-Jun-14 16:30N 39°16' W 076°35'0 0.0
2018-Jun-14 16:00N 39°16' W 076°35'0 0.0
2018-Jun-14 15:30N 39°16' W 076°35'0 0.0
2018-Jun-14 15:00N 39°16' W 076°35'0 0.0
2018-Jun-14 14:30N 39°16' W 076°35'0 0.2
2018-Jun-14 14:00N 39°16' W 076°35'0 0.2
2018-Jun-14 13:30N 39°16' W 076°35'0 0.0
2018-Jun-14 13:00N 39°16' W 076°35'2 3.6
2018-Jun-14 12:30N 39°15' W 076°34'1 2.7
2018-Jun-14 12:01N 39°14' W 076°34'0 0.0
2018-Jun-14 11:30N 39°14' W 076°34'0 0.0
2018-Jun-14 11:00N 39°14' W 076°34'0 0.0
2018-Jun-14 10:30N 39°14' W 076°34'2 4.4
2018-Jun-14 10:00N 39°16' W 076°34'1 3.0
2018-Jun-14 09:30N 39°17' W 076°36'0 0.0
2018-Jun-14 09:00N 39°17' W 076°36'0 0.0
2018-Jun-14 08:30N 39°17' W 076°36'0 0.0
2018-Jun-14 08:00N 39°17' W 076°36'0 0.0
2018-Jun-14 07:30N 39°17' W 076°36'0 0.0
2018-Jun-14 07:00N 39°17' W 076°36'0 0.0
2018-Jun-14 06:31N 39°17' W 076°36'0 0.0
2018-Jun-14 06:00N 39°17' W 076°36'0 0.0
2018-Jun-14 05:30N 39°17' W 076°36'0 0.0
2018-Jun-14 05:00N 39°17' W 076°36'0 0.0
2018-Jun-14 04:30N 39°17' W 076°36'0 0.0
2018-Jun-14 04:00N 39°17' W 076°36'0 0.0
2018-Jun-14 03:30N 39°17' W 076°36'0 0.0
2018-Jun-14 03:00N 39°17' W 076°36'1 1.5
2018-Jun-14 02:30N 39°16' W 076°35'2 3.2
2018-Jun-14 02:00N 39°15' W 076°34'4 7.3
2018-Jun-14 01:30N 39°12' W 076°31'4 7.0
2018-Jun-14 01:00N 39°11' W 076°26'4 7.0
2018-Jun-14 00:27N 39°08' W 076°24'4 7.4
2018-Jun-13 23:58N 39°04' W 076°23'4 7.8
2018-Jun-13 23:30N 39°00' W 076°23'4 7.7
2018-Jun-13 23:00N 38°57' W 076°24'4 7.9
2018-Jun-13 22:30N 38°53' W 076°25'4 7.9
2018-Jun-13 21:57N 38°49' W 076°26'116 6.6
2018-Jun-13 04:18N 36°52' W 076°20'2 8.0
2018-Jun-13 04:00N 36°51' W 076°18'4 7.1
2018-Jun-13 03:30N 36°47' W 076°18'2 3.2
2018-Jun-13 03:00N 36°46' W 076°18'3 5.2
2018-Jun-13 02:28N 36°44' W 076°15'1 1.7
2018-Jun-13 02:00N 36°43' W 076°15'  
2018-Jun-09 15:00N 36°43' W 076°15'0 0.7
2018-Jun-09 14:21N 36°43' W 076°15'1 1.8
2018-Jun-09 13:59N 36°44' W 076°16'2 4.0
2018-Jun-09 13:30N 36°45' W 076°18'2 4.1
2018-Jun-09 13:00N 36°47' W 076°18'2 4.8
2018-Jun-09 12:30N 36°49' W 076°17'3 5.7
2018-Jun-09 12:00N 36°52' W 076°19'117 5.6
2018-Jun-08 15:02N 38°48' W 076°27'0 5.9
2018-Jun-08 14:59N 38°48' W 076°27'3 6.0
2018-Jun-08 14:30N 38°51' W 076°26'3 6.1
2018-Jun-08 14:00N 38°54' W 076°25'3 6.4
2018-Jun-08 13:30N 38°57' W 076°24'3 6.7
2018-Jun-08 13:00N 39°00' W 076°22'8 6.6
2018-Jun-08 11:46N 39°08' W 076°19'2 6.6
2018-Jun-08 11:26N 39°10' W 076°18'3 6.7
2018-Jun-08 11:00N 39°12' W 076°16'3 6.7
2018-Jun-08 10:30N 39°16' W 076°14'4 6.4
2018-Jun-08 09:53N 39°19' W 076°13'2 6.3
2018-Jun-08 09:30N 39°21' W 076°10'3 6.0
2018-Jun-08 08:57N 39°23' W 076°07'3 5.6
2018-Jun-08 08:28N 39°24' W 076°03'2 5.3
2018-Jun-08 08:00N 39°25' W 076°01'3 5.3
2018-Jun-08 07:30N 39°27' W 075°59'3 5.1
2018-Jun-08 07:00N 39°29' W 075°56'2 4.7
2018-Jun-08 06:30N 39°31' W 075°54'2 4.4
2018-Jun-08 06:00N 39°32' W 075°52'2 4.3
2018-Jun-08 05:30N 39°32' W 075°49'2 4.6
2018-Jun-08 05:00N 39°32' W 075°46'3 5.1
2018-Jun-08 04:30N 39°33' W 075°43'3 5.7
2018-Jun-08 04:01N 39°33' W 075°39'3 6.3
2018-Jun-08 03:30N 39°33' W 075°35'2 4.8
2018-Jun-08 03:00N 39°36' W 075°34'3 6.9
2018-Jun-08 02:30N 39°39' W 075°33'4 7.3
2018-Jun-08 02:00N 39°42' W 075°31'  
Track history (hours):
 
Tides and Currents Weather Stations Pressure Air Temp Water Temp Dewpoint Dewpoint Depression Visibility Wind Speed Wind Dir Waves Ship Positions

Island Lookout

Owner: Stevens Towing Company Inc., Yonges Island, SC. More information available from US FCC via Universal Licensing System and Coast Guard Vessel Documentation Center.

Last reported at 2018-Jun-18 01:49 UTC. Time now 2018-Jun-19 08:09 UTC.
Position N 36°43' W 076°14'.

Length 22 m; draft 2.9 m.

Type: Towing. MMSI: 367472930.

Date/timePositionNaut miles runAvg speedWind from/ knotsBaromVisibWave heightAir tempDewpointWater temp
2018-Jun-18 01:49N 36°43' W 076°14'1 2.0
2018-Jun-18 01:30N 36°43' W 076°15'3 5.3
2018-Jun-18 01:00N 36°44' W 076°18'0 0.7
2018-Jun-18 00:30N 36°45' W 076°18'1 2.6
2018-Jun-18 00:00N 36°46' W 076°18'1 1.3
2018-Jun-17 23:30N 36°47' W 076°18'2 4.3
2018-Jun-17 23:00N 36°45' W 076°18'3 3.3
2018-Jun-17 22:10N 36°43' W 076°15'1 0.8
2018-Jun-17 21:18N 36°43' W 076°14'0 0.0
2018-Jun-16 02:42N 36°43' W 076°14'1 1.8
2018-Jun-16 02:23N 36°43' W 076°15'0 1.0
2018-Jun-16 01:58N 36°44' W 076°15'2 4.4
2018-Jun-16 01:30N 36°44' W 076°18'2 4.8
2018-Jun-16 01:00N 36°47' W 076°18'1 1.1
2018-Jun-16 00:30N 36°47' W 076°18'3 5.7
2018-Jun-16 00:00N 36°50' W 076°18'3 5.6
2018-Jun-15 23:27N 36°52' W 076°20'116 5.8
2018-Jun-15 03:22N 38°48' W 076°27'3 6.8
2018-Jun-15 03:00N 38°50' W 076°26'3 6.7
2018-Jun-15 02:30N 38°53' W 076°25'3 6.9
2018-Jun-15 02:00N 38°57' W 076°24'3 6.5
2018-Jun-15 01:30N 38°60' W 076°23'3 6.2
2018-Jun-15 00:59N 39°03' W 076°23'3 6.0
2018-Jun-15 00:25N 39°06' W 076°24'2 5.7
2018-Jun-15 00:00N 39°09' W 076°25'3 5.8
2018-Jun-14 23:30N 39°11' W 076°27'3 6.1
2018-Jun-14 23:00N 39°12' W 076°30'3 6.4
2018-Jun-14 22:30N 39°14' W 076°33'2 4.6
2018-Jun-14 22:00N 39°16' W 076°35'0 0.0
2018-Jun-14 21:30N 39°16' W 076°35'0 0.1
2018-Jun-14 21:00N 39°16' W 076°35'0 0.0
2018-Jun-14 20:30N 39°16' W 076°35'0 0.0
2018-Jun-14 20:00N 39°16' W 076°35'0 0.0
2018-Jun-14 19:30N 39°16' W 076°35'0 0.0
2018-Jun-14 19:00N 39°16' W 076°35'0 0.0
2018-Jun-14 18:30N 39°16' W 076°35'0 0.0
2018-Jun-14 18:00N 39°16' W 076°35'0 0.0
2018-Jun-14 17:30N 39°16' W 076°35'0 0.0
2018-Jun-14 17:00N 39°16' W 076°35'0 0.0
2018-Jun-14 16:30N 39°16' W 076°35'0 0.0
2018-Jun-14 16:00N 39°16' W 076°35'0 0.0
2018-Jun-14 15:30N 39°16' W 076°35'0 0.0
2018-Jun-14 15:00N 39°16' W 076°35'0 0.0
2018-Jun-14 14:30N 39°16' W 076°35'0 0.2
2018-Jun-14 14:00N 39°16' W 076°35'0 0.2
2018-Jun-14 13:30N 39°16' W 076°35'0 0.0
2018-Jun-14 13:00N 39°16' W 076°35'2 3.6
2018-Jun-14 12:30N 39°15' W 076°34'1 2.7
2018-Jun-14 12:01N 39°14' W 076°34'0 0.0
2018-Jun-14 11:30N 39°14' W 076°34'0 0.0
2018-Jun-14 11:00N 39°14' W 076°34'0 0.0
2018-Jun-14 10:30N 39°14' W 076°34'2 4.4
2018-Jun-14 10:00N 39°16' W 076°34'1 3.0
2018-Jun-14 09:30N 39°17' W 076°36'0 0.0
2018-Jun-14 09:00N 39°17' W 076°36'0 0.0
2018-Jun-14 08:30N 39°17' W 076°36'0 0.0
2018-Jun-14 08:00N 39°17' W 076°36'0 0.0
2018-Jun-14 07:30N 39°17' W 076°36'0 0.0
2018-Jun-14 07:00N 39°17' W 076°36'0 0.0
2018-Jun-14 06:31N 39°17' W 076°36'0 0.0
2018-Jun-14 06:00N 39°17' W 076°36'0 0.0
2018-Jun-14 05:30N 39°17' W 076°36'0 0.0
2018-Jun-14 05:00N 39°17' W 076°36'0 0.0
2018-Jun-14 04:30N 39°17' W 076°36'0 0.0
2018-Jun-14 04:00N 39°17' W 076°36'0 0.0
2018-Jun-14 03:30N 39°17' W 076°36'0 0.0
2018-Jun-14 03:00N 39°17' W 076°36'1 1.5
2018-Jun-14 02:30N 39°16' W 076°35'2 3.2
2018-Jun-14 02:00N 39°15' W 076°34'4 7.3
2018-Jun-14 01:30N 39°12' W 076°31'4 7.0
2018-Jun-14 01:00N 39°11' W 076°26'4 7.0
2018-Jun-14 00:27N 39°08' W 076°24'4 7.4
2018-Jun-13 23:58N 39°04' W 076°23'4 7.8
2018-Jun-13 23:30N 39°00' W 076°23'4 7.7
2018-Jun-13 23:00N 38°57' W 076°24'4 7.9
2018-Jun-13 22:30N 38°53' W 076°25'4 7.9
2018-Jun-13 21:57N 38°49' W 076°26'116 6.6
2018-Jun-13 04:18N 36°52' W 076°20'2 8.0
2018-Jun-13 04:00N 36°51' W 076°18'4 7.1
2018-Jun-13 03:30N 36°47' W 076°18'2 3.2
2018-Jun-13 03:00N 36°46' W 076°18'3 5.2
2018-Jun-13 02:28N 36°44' W 076°15'1 1.7
2018-Jun-13 02:00N 36°43' W 076°15'  
2018-Jun-09 15:00N 36°43' W 076°15'0 0.7
2018-Jun-09 14:21N 36°43' W 076°15'1 1.8
2018-Jun-09 13:59N 36°44' W 076°16'2 4.0
2018-Jun-09 13:30N 36°45' W 076°18'2 4.1
2018-Jun-09 13:00N 36°47' W 076°18'2 4.8
2018-Jun-09 12:30N 36°49' W 076°17'3 5.7
2018-Jun-09 12:00N 36°52' W 076°19'117 5.6
2018-Jun-08 15:02N 38°48' W 076°27'0 5.9
2018-Jun-08 14:59N 38°48' W 076°27'3 6.0
2018-Jun-08 14:30N 38°51' W 076°26'3 6.1
2018-Jun-08 14:00N 38°54' W 076°25'3 6.4
2018-Jun-08 13:30N 38°57' W 076°24'3 6.7
2018-Jun-08 13:00N 39°00' W 076°22'8 6.6
2018-Jun-08 11:46N 39°08' W 076°19'2 6.6
2018-Jun-08 11:26N 39°10' W 076°18'3 6.7
2018-Jun-08 11:00N 39°12' W 076°16'3 6.7
2018-Jun-08 10:30N 39°16' W 076°14'4 6.4
2018-Jun-08 09:53N 39°19' W 076°13'2 6.3
2018-Jun-08 09:30N 39°21' W 076°10'3 6.0
2018-Jun-08 08:57N 39°23' W 076°07'3 5.6
2018-Jun-08 08:28N 39°24' W 076°03'2 5.3
2018-Jun-08 08:00N 39°25' W 076°01'3 5.3
2018-Jun-08 07:30N 39°27' W 075°59'3 5.1
2018-Jun-08 07:00N 39°29' W 075°56'2 4.7
2018-Jun-08 06:30N 39°31' W 075°54'2 4.4
2018-Jun-08 06:00N 39°32' W 075°52'2 4.3
2018-Jun-08 05:30N 39°32' W 075°49'2 4.6
2018-Jun-08 05:00N 39°32' W 075°46'3 5.1
2018-Jun-08 04:30N 39°33' W 075°43'3 5.7
2018-Jun-08 04:01N 39°33' W 075°39'3 6.3
2018-Jun-08 03:30N 39°33' W 075°35'2 4.8
2018-Jun-08 03:00N 39°36' W 075°34'3 6.9
2018-Jun-08 02:30N 39°39' W 075°33'4 7.3
2018-Jun-08 02:00N 39°42' W 075°31'  

Dump ship's entire track history